createdAt,value
2022-10-02T00:00:31.443Z,12.73
2022-10-02T00:03:08.279Z,14.60
2022-10-02T00:05:46.699Z,16.20
2022-10-02T00:08:29.076Z,14.13
2022-10-02T00:11:01.574Z,11.90
2022-10-02T00:14:01.706Z,15.35
2022-10-02T00:16:34.770Z,11.63
2022-10-02T00:19:02.080Z,15.48
2022-10-02T00:21:35.802Z,12.23
2022-10-02T00:24:05.668Z,11.85
2022-10-02T00:26:50.498Z,9.93
2022-10-02T00:29:27.545Z,8.00
2022-10-02T00:32:16.556Z,14.85
2022-10-02T00:35:07.801Z,7.43
2022-10-02T00:37:52.526Z,9.57
2022-10-02T00:40:42.835Z,7.97
2022-10-02T00:43:24.075Z,9.20
2022-10-02T00:45:56.349Z,9.63
2022-10-02T00:48:30.368Z,10.38
2022-10-02T00:51:22.945Z,8.15
2022-10-02T00:54:18.352Z,10.32
2022-10-02T00:57:16.029Z,8.25
2022-10-02T01:00:04.308Z,6.95
2022-10-02T01:02:36.921Z,7.13
2022-10-02T01:05:08.488Z,7.60
2022-10-02T01:07:39.133Z,7.05
2022-10-02T01:10:06.723Z,7.00
2022-10-02T01:12:33.263Z,6.00
2022-10-02T01:14:59.711Z,8.40
2022-10-02T01:17:34.174Z,7.75
2022-10-02T01:20:07.513Z,7.93
2022-10-02T01:22:46.127Z,13.52
2022-10-02T01:25:12.897Z,11.15
2022-10-02T01:27:39.834Z,15.95
2022-10-02T01:30:12.346Z,13.32
2022-10-02T01:32:43.895Z,13.50
2022-10-02T01:35:10.785Z,19.17
2022-10-02T01:37:41.204Z,17.30
2022-10-02T01:40:10.867Z,13.85
2022-10-02T01:42:39.271Z,15.50
2022-10-02T01:45:08.561Z,17.45
2022-10-02T01:47:51.635Z,19.50
2022-10-02T01:50:38.228Z,23.77
2022-10-02T01:53:20.140Z,18.45
2022-10-02T01:56:01.196Z,18.77
2022-10-02T01:58:52.577Z,19.42
2022-10-02T02:01:25.198Z,21.73
2022-10-02T02:04:09.611Z,19.52
2022-10-02T02:06:51.835Z,21.10
2022-10-02T02:12:15.185Z,24.30
2022-10-02T02:14:51.986Z,16.88
2022-10-02T02:17:31.390Z,28.38
2022-10-02T02:20:14.571Z,24.25
2022-10-02T02:22:45.480Z,19.88
2022-10-02T02:25:22.523Z,20.83
2022-10-02T02:27:54.704Z,16.52
2022-10-02T02:30:22.554Z,17.90
2022-10-02T02:32:55.790Z,20.10
2022-10-02T02:35:30.981Z,24.98
2022-10-02T02:38:05.047Z,24.88
2022-10-02T02:40:36.267Z,21.70
2022-10-02T02:43:08.941Z,21.70
2022-10-02T02:45:44.439Z,30.63
2022-10-02T02:48:36.833Z,28.65
2022-10-02T02:53:43.221Z,31.15
2022-10-02T02:56:15.596Z,21.35
2022-10-02T02:58:58.197Z,27.33
2022-10-02T03:01:24.838Z,21.77
2022-10-02T03:03:51.307Z,21.98
2022-10-02T03:06:21.159Z,28.67
2022-10-02T03:08:51.615Z,23.98
2022-10-02T03:11:39.330Z,20.15
2022-10-02T03:14:11.832Z,30.05
2022-10-02T03:16:50.433Z,24.02
2022-10-02T03:19:41.821Z,24.95
2022-10-02T03:22:27.149Z,26.88
2022-10-02T03:25:20.359Z,23.13
2022-10-02T03:27:52.722Z,27.60
2022-10-02T03:30:20.723Z,19.98
2022-10-02T03:32:51.351Z,21.35
2022-10-02T03:35:18.492Z,23.00
2022-10-02T03:37:49.922Z,25.65
2022-10-02T03:40:16.468Z,27.13
2022-10-02T03:42:43.214Z,21.50
2022-10-02T03:45:09.889Z,26.00
2022-10-02T03:47:36.336Z,28.58
2022-10-02T03:50:02.850Z,21.20
2022-10-02T03:52:32.610Z,21.33
2022-10-02T03:55:03.579Z,24.80
2022-10-02T03:57:33.453Z,23.02
2022-10-02T04:00:09.146Z,23.25
2022-10-02T04:02:49.855Z,22.52
2022-10-02T04:05:26.773Z,17.50
2022-10-02T04:08:05.026Z,26.52
2022-10-02T04:10:42.579Z,19.92
2022-10-02T04:13:24.147Z,17.77
2022-10-02T04:16:05.249Z,23.98
2022-10-02T04:18:41.369Z,26.92
2022-10-02T04:21:17.648Z,22.75
2022-10-02T04:23:50.742Z,22.50
2022-10-02T04:26:23.481Z,21.40
2022-10-02T04:28:55.554Z,20.15
2022-10-02T04:33:50.614Z,18.23
2022-10-02T04:36:41.010Z,25.00
2022-10-02T04:39:29.805Z,17.30
2022-10-02T04:42:42.759Z,22.38
2022-10-02T04:45:27.329Z,33.05
2022-10-02T04:48:26.377Z,22.35
2022-10-02T04:51:03.773Z,21.58
2022-10-02T04:54:07.527Z,20.45
2022-10-02T04:57:01.453Z,29.45
2022-10-02T04:59:42.770Z,22.20
2022-10-02T05:02:18.402Z,23.07
2022-10-02T05:05:03.417Z,20.25
2022-10-02T05:08:07.374Z,26.98
2022-10-02T05:10:52.600Z,23.23
2022-10-02T05:13:40.931Z,24.48
2022-10-02T05:16:16.740Z,27.60
2022-10-02T05:19:02.021Z,20.92
2022-10-02T05:21:37.233Z,24.48
2022-10-02T05:24:42.061Z,21.73
2022-10-02T05:27:39.142Z,25.23
2022-10-02T05:30:07.606Z,20.30
2022-10-02T05:32:42.906Z,23.17
2022-10-02T05:35:45.413Z,20.48
2022-10-02T05:41:19.375Z,23.13
2022-10-02T05:44:15.091Z,21.45
2022-10-02T05:47:09.478Z,27.45
2022-10-02T05:49:40.885Z,26.63
2022-10-02T05:52:31.169Z,18.55
2022-10-02T05:55:35.928Z,20.95
2022-10-02T05:58:16.410Z,22.67
2022-10-02T06:00:52.273Z,19.83
2022-10-02T06:03:43.527Z,21.98
2022-10-02T06:06:20.258Z,19.13
2022-10-02T06:08:53.471Z,25.92
2022-10-02T06:11:25.995Z,24.45
2022-10-02T06:14:00.621Z,19.05
2022-10-02T06:16:39.737Z,22.35
2022-10-02T06:19:23.265Z,21.92
2022-10-02T06:21:55.044Z,21.42
2022-10-02T06:24:31.728Z,17.75
2022-10-02T06:27:04.579Z,21.17
2022-10-02T06:29:42.327Z,21.98
2022-10-02T06:32:46.281Z,18.25
2022-10-02T06:35:15.764Z,20.40
2022-10-02T06:38:01.265Z,16.73
2022-10-02T06:40:59.134Z,18.77
2022-10-02T06:43:40.394Z,21.38
2022-10-02T06:46:25.138Z,16.93
2022-10-02T06:49:09.647Z,15.63
2022-10-02T06:51:47.628Z,16.65
2022-10-02T06:54:51.050Z,16.55
2022-10-02T06:57:30.667Z,19.92
2022-10-02T07:00:14.770Z,19.90
2022-10-02T07:03:09.411Z,17.08
2022-10-02T07:06:01.306Z,15.93
2022-10-02T07:09:06.036Z,23.45
2022-10-02T07:11:40.984Z,16.80
2022-10-02T07:14:16.353Z,15.35
2022-10-02T07:16:46.548Z,16.20
2022-10-02T07:19:53.631Z,18.48
2022-10-02T07:22:45.777Z,17.35
2022-10-02T07:25:23.119Z,17.65
2022-10-02T07:27:55.836Z,19.63
2022-10-02T07:30:22.577Z,27.17
2022-10-02T07:32:49.082Z,18.13
2022-10-02T07:35:39.920Z,18.63
2022-10-02T07:38:44.763Z,18.27
2022-10-02T07:41:35.927Z,16.02
2022-10-02T07:44:27.613Z,19.35
2022-10-02T07:47:17.065Z,14.73
2022-10-02T07:49:52.464Z,18.70
2022-10-02T07:52:55.482Z,17.05
2022-10-02T07:55:23.730Z,20.55
2022-10-02T07:57:59.321Z,18.15
2022-10-02T08:00:31.339Z,13.95
2022-10-02T08:05:53.564Z,16.08
2022-10-02T08:08:25.841Z,18.13
2022-10-02T08:11:04.039Z,15.43
2022-10-02T08:13:39.932Z,13.65
2022-10-02T08:16:08.814Z,15.85
2022-10-02T08:18:39.946Z,21.20
2022-10-02T08:21:16.924Z,17.30
2022-10-02T08:23:55.379Z,17.38
2022-10-02T08:26:35.820Z,17.17
2022-10-02T08:29:21.397Z,16.52
2022-10-02T08:31:52.940Z,15.43
2022-10-02T08:34:22.162Z,23.17
2022-10-02T08:36:59.439Z,18.25
2022-10-02T08:39:50.673Z,13.90
2022-10-02T08:42:32.344Z,16.75
2022-10-02T08:45:46.564Z,16.63
2022-10-02T08:48:42.484Z,19.73
2022-10-02T08:51:45.199Z,16.73
2022-10-02T08:54:54.551Z,14.18
2022-10-02T08:57:36.848Z,12.43
2022-10-02T09:00:24.808Z,13.93
2022-10-02T09:03:28.991Z,11.63
2022-10-02T09:06:19.685Z,13.45
2022-10-02T09:08:58.003Z,17.15
2022-10-02T09:11:45.139Z,14.68
2022-10-02T09:14:37.302Z,16.33
2022-10-02T09:17:32.258Z,12.73
2022-10-02T09:20:30.268Z,15.82
2022-10-02T09:23:28.075Z,16.95
2022-10-02T09:26:12.916Z,13.23
2022-10-02T09:29:13.704Z,19.88
2022-10-02T09:32:03.908Z,20.77
2022-10-02T09:35:08.009Z,23.58
2022-10-02T09:37:59.566Z,24.65
2022-10-02T09:40:44.586Z,16.48
2022-10-02T09:43:23.145Z,17.40
2022-10-02T09:46:17.091Z,19.60
2022-10-02T09:49:08.934Z,17.48
2022-10-02T09:51:41.809Z,15.90
2022-10-02T09:54:11.380Z,12.40
2022-10-02T09:57:04.242Z,18.15
2022-10-02T10:00:05.178Z,13.75
2022-10-02T10:02:48.112Z,13.82
2022-10-02T10:05:34.616Z,11.77
2022-10-02T10:08:41.841Z,17.25
2022-10-02T10:11:35.998Z,19.80
2022-10-02T10:14:29.274Z,13.43
2022-10-02T10:17:33.366Z,17.85
2022-10-02T10:20:46.301Z,17.27
2022-10-02T10:23:22.358Z,14.27
2022-10-02T10:26:33.282Z,13.85
2022-10-02T10:29:19.783Z,18.63
2022-10-02T10:32:16.869Z,20.40
2022-10-02T10:34:55.305Z,18.98
2022-10-02T10:38:13.027Z,18.65
2022-10-02T10:40:55.382Z,12.88
2022-10-02T10:43:42.083Z,14.45
2022-10-02T10:46:26.972Z,14.23
2022-10-02T10:49:12.174Z,16.88
2022-10-02T10:51:55.524Z,17.15
2022-10-02T10:55:02.779Z,13.75
2022-10-02T10:57:58.605Z,11.77
2022-10-02T11:00:32.777Z,15.77
2022-10-02T11:03:27.969Z,17.60
2022-10-02T11:06:16.800Z,10.80
2022-10-02T11:09:03.538Z,11.52
2022-10-02T11:12:09.680Z,11.48
2022-10-02T11:14:51.435Z,12.52
2022-10-02T11:17:39.837Z,17.60
2022-10-02T11:20:14.992Z,10.68
2022-10-02T11:23:26.652Z,16.33
2022-10-02T11:26:09.795Z,14.73
2022-10-02T11:29:10.173Z,11.95
2022-10-02T11:32:03.564Z,13.13
2022-10-02T11:34:48.439Z,9.38
2022-10-02T11:37:38.692Z,10.48
2022-10-02T11:40:31.068Z,12.68
2022-10-02T11:43:45.175Z,13.60
2022-10-02T11:46:33.615Z,9.85
2022-10-02T11:49:30.154Z,15.75
2022-10-02T11:52:18.058Z,10.02
2022-10-02T11:55:05.613Z,9.70
2022-10-02T11:57:52.132Z,10.93
2022-10-02T12:00:38.637Z,11.43
2022-10-02T12:03:27.960Z,11.45
2022-10-02T12:06:15.280Z,10.57
2022-10-02T12:09:09.408Z,10.25
2022-10-02T12:11:56.858Z,8.38
2022-10-02T12:14:42.713Z,14.90
2022-10-02T12:17:27.708Z,16.55
2022-10-02T12:20:15.810Z,16.98
2022-10-02T12:23:17.340Z,11.85
2022-10-02T12:26:10.445Z,11.80
2022-10-02T12:28:56.866Z,10.93
2022-10-02T12:31:35.596Z,10.18
2022-10-02T12:34:21.010Z,12.43
2022-10-02T12:37:10.707Z,16.20
2022-10-02T12:40:03.406Z,9.35
2022-10-02T12:43:03.702Z,9.75
2022-10-02T12:45:47.580Z,8.95
2022-10-02T12:48:33.632Z,11.18
2022-10-02T12:51:30.464Z,11.88
2022-10-02T12:54:38.890Z,9.68
2022-10-02T12:57:45.515Z,9.93
2022-10-02T13:00:20.790Z,11.18
2022-10-02T13:03:05.432Z,12.23
2022-10-02T13:06:10.826Z,11.55
2022-10-02T13:08:48.340Z,12.80
2022-10-02T13:11:14.765Z,7.65
2022-10-02T13:14:07.043Z,7.55
2022-10-02T13:19:50.606Z,5.82
2022-10-02T13:22:24.946Z,10.90
2022-10-02T13:25:24.033Z,16.65
2022-10-02T13:27:55.866Z,11.70
2022-10-02T13:30:24.014Z,12.95
2022-10-02T13:33:17.389Z,12.20
2022-10-02T13:36:06.870Z,13.65
2022-10-02T13:39:23.443Z,12.30
2022-10-02T13:42:25.804Z,10.77
2022-10-02T13:45:06.046Z,10.27
2022-10-02T13:47:41.304Z,11.85
2022-10-02T13:50:20.005Z,8.35
2022-10-02T13:53:12.991Z,6.70
2022-10-02T13:55:46.996Z,14.85
2022-10-02T13:58:45.853Z,7.85
2022-10-02T14:01:17.974Z,9.48
2022-10-02T14:04:06.989Z,12.10
2022-10-02T14:06:36.420Z,7.45
2022-10-02T14:09:25.777Z,12.18
2022-10-02T14:12:32.772Z,12.23
2022-10-02T14:15:11.511Z,8.68
2022-10-02T14:17:50.361Z,13.55
2022-10-02T14:20:29.113Z,9.80
2022-10-02T14:23:21.775Z,10.95
2022-10-02T14:26:00.432Z,12.18
2022-10-02T14:28:30.019Z,9.52
2022-10-02T14:31:21.114Z,11.13
2022-10-02T14:33:53.451Z,9.40
2022-10-02T14:36:26.023Z,9.85
2022-10-02T14:39:16.740Z,8.00
2022-10-02T14:41:51.918Z,10.68
2022-10-02T14:44:32.848Z,12.70
2022-10-02T14:47:15.649Z,12.13
2022-10-02T14:50:11.682Z,11.52
2022-10-02T14:53:14.958Z,9.98
2022-10-02T14:55:58.094Z,9.77
2022-10-02T14:58:36.614Z,9.38
2022-10-02T15:01:24.704Z,8.48
2022-10-02T15:04:09.851Z,10.63
2022-10-02T15:06:46.552Z,11.30
2022-10-02T15:09:21.626Z,13.32
2022-10-02T15:12:10.680Z,10.30
2022-10-02T15:15:08.454Z,9.45
2022-10-02T15:17:56.340Z,8.45
2022-10-02T15:20:52.350Z,13.00
2022-10-02T15:23:44.100Z,12.02
2022-10-02T15:26:35.532Z,10.60
2022-10-02T15:29:21.094Z,14.57
2022-10-02T15:32:23.882Z,9.50
2022-10-02T15:35:11.579Z,9.43
2022-10-02T15:38:23.302Z,11.52
2022-10-02T15:41:16.541Z,8.87
2022-10-02T15:44:00.687Z,8.02
2022-10-02T15:46:51.348Z,10.63
2022-10-02T15:49:39.074Z,6.78
2022-10-02T15:52:10.330Z,10.85
2022-10-02T15:54:51.829Z,8.18
2022-10-02T15:57:43.403Z,9.02
2022-10-02T16:00:21.006Z,11.13
2022-10-02T16:03:02.961Z,9.63
2022-10-02T16:05:51.000Z,10.73
2022-10-02T16:08:35.998Z,11.15
2022-10-02T16:11:23.189Z,8.85
2022-10-02T16:14:33.779Z,11.50
2022-10-02T16:17:00.202Z,7.35
2022-10-02T16:19:48.062Z,11.90
2022-10-02T16:22:17.934Z,8.55
2022-10-02T16:25:03.112Z,9.43
2022-10-02T16:27:48.695Z,8.55
2022-10-02T16:30:24.207Z,9.57
2022-10-02T16:33:18.684Z,10.48
2022-10-02T16:36:06.198Z,9.15
2022-10-02T16:38:38.483Z,8.77
2022-10-02T16:41:24.690Z,12.77
2022-10-02T16:44:02.022Z,9.32
2022-10-02T16:46:52.745Z,6.65
2022-10-02T16:49:31.918Z,8.00
2022-10-02T16:52:09.880Z,10.52
2022-10-02T16:54:48.729Z,10.27
2022-10-02T16:57:18.005Z,7.50
2022-10-02T16:59:52.171Z,9.75
2022-10-02T17:02:43.380Z,9.00
2022-10-02T17:05:47.820Z,8.70
2022-10-02T17:08:31.077Z,7.85
2022-10-02T17:11:30.604Z,7.53
2022-10-02T17:14:25.198Z,9.30
2022-10-02T17:16:55.828Z,8.77
2022-10-02T17:19:35.199Z,10.05
2022-10-02T17:22:27.125Z,12.38
2022-10-02T17:25:27.004Z,7.43
2022-10-02T17:28:08.484Z,10.07
2022-10-02T17:31:09.203Z,10.60
2022-10-02T17:34:17.773Z,10.00
2022-10-02T17:37:07.152Z,12.98
2022-10-02T17:39:58.411Z,9.45
2022-10-02T17:42:51.894Z,10.45
2022-10-02T17:45:45.767Z,13.38
2022-10-02T17:48:33.275Z,11.95
2022-10-02T17:55:14.095Z,15.75
2022-10-02T17:58:14.192Z,9.60
2022-10-02T18:01:18.362Z,15.77
2022-10-02T18:04:03.687Z,17.17
2022-10-02T18:06:38.011Z,15.15
2022-10-02T18:09:29.099Z,12.40
2022-10-02T18:12:19.781Z,15.30
2022-10-02T18:14:50.372Z,14.48
2022-10-02T18:18:02.675Z,17.02
2022-10-02T18:20:33.496Z,20.60
2022-10-02T18:23:29.379Z,17.75
2022-10-02T18:26:21.582Z,18.45
2022-10-02T18:29:02.071Z,19.00
2022-10-02T18:31:59.246Z,18.40
2022-10-02T18:35:00.482Z,19.17
2022-10-02T18:37:51.962Z,8.63
2022-10-02T18:40:29.614Z,23.97
2022-10-02T18:43:15.457Z,15.95
2022-10-02T18:45:55.983Z,19.17
2022-10-02T18:48:44.303Z,12.45
2022-10-02T18:51:11.115Z,20.98
2022-10-02T18:54:17.927Z,18.95
2022-10-02T18:56:56.804Z,16.88
2022-10-02T18:59:26.058Z,14.18
2022-10-02T19:02:26.280Z,19.75
2022-10-02T19:05:04.819Z,18.40
2022-10-02T19:08:02.867Z,14.77
2022-10-02T19:10:32.323Z,16.35
2022-10-02T19:13:17.937Z,17.60
2022-10-02T19:15:48.428Z,14.95
2022-10-02T19:18:26.911Z,12.85
2022-10-02T19:21:08.295Z,13.73
2022-10-02T19:24:05.954Z,20.90
2022-10-02T19:26:35.590Z,13.73
2022-10-02T19:29:26.748Z,13.45
2022-10-02T19:31:55.591Z,16.63
2022-10-02T19:34:27.637Z,15.82
2022-10-02T19:39:42.930Z,17.02
2022-10-02T19:42:15.909Z,15.98
2022-10-02T19:44:49.366Z,14.95
2022-10-02T19:47:31.751Z,15.45
2022-10-02T19:50:01.008Z,17.13
2022-10-02T19:52:35.799Z,17.85
2022-10-02T19:55:16.068Z,16.98
2022-10-02T19:57:45.212Z,17.10
2022-10-02T20:00:20.220Z,19.42
2022-10-02T20:02:48.984Z,13.77
2022-10-02T20:05:20.655Z,19.48
2022-10-02T20:07:49.573Z,16.42
2022-10-02T20:10:22.334Z,18.35
2022-10-02T20:13:05.294Z,13.43
2022-10-02T20:16:13.227Z,18.20
2022-10-02T20:18:40.030Z,16.50
2022-10-02T20:21:16.543Z,21.98
2022-10-02T20:23:49.609Z,18.00
2022-10-02T20:26:19.108Z,15.68
2022-10-02T20:28:52.057Z,13.65
2022-10-02T20:31:25.143Z,19.13
2022-10-02T20:34:04.569Z,16.23
2022-10-02T20:36:54.789Z,22.67
2022-10-02T20:39:27.150Z,18.83
2022-10-02T20:42:21.141Z,16.67
2022-10-02T20:44:50.862Z,19.15
2022-10-02T20:47:29.294Z,17.52
2022-10-02T20:50:34.165Z,17.60
2022-10-02T20:53:19.293Z,16.58
2022-10-02T20:56:03.386Z,15.30
2022-10-02T20:58:49.104Z,20.27
2022-10-02T21:01:50.179Z,21.05
2022-10-02T21:04:38.113Z,20.63
2022-10-02T21:07:10.729Z,19.98
2022-10-02T21:10:22.086Z,23.02
2022-10-02T21:13:13.019Z,19.35
2022-10-02T21:15:59.935Z,22.48
2022-10-02T21:18:41.688Z,18.73
2022-10-02T21:21:53.704Z,21.08
2022-10-02T21:25:08.791Z,20.98
2022-10-02T21:27:59.603Z,16.35
2022-10-02T21:30:58.359Z,21.35
2022-10-02T21:33:31.535Z,20.77
2022-10-02T21:36:24.997Z,19.80
2022-10-02T21:39:22.537Z,25.77
2022-10-02T21:42:10.882Z,17.65
2022-10-02T21:45:00.349Z,23.77
2022-10-02T21:48:04.542Z,16.65
2022-10-02T21:51:06.426Z,19.63
2022-10-02T21:53:32.876Z,29.80
2022-10-02T21:56:20.944Z,24.52
2022-10-02T21:58:50.659Z,19.10
2022-10-02T22:01:46.478Z,22.67
2022-10-02T22:04:42.926Z,23.75
2022-10-02T22:07:36.208Z,19.15
2022-10-02T22:10:22.602Z,19.35
2022-10-02T22:13:25.396Z,29.50
2022-10-02T22:16:39.550Z,18.25
2022-10-02T22:19:27.625Z,25.98
2022-10-02T22:21:57.143Z,19.25
2022-10-02T22:24:35.410Z,25.48
2022-10-02T22:27:39.446Z,21.13
2022-10-02T22:30:10.729Z,25.58
2022-10-02T22:33:13.246Z,25.02
2022-10-02T22:36:12.426Z,22.83
2022-10-02T22:39:22.442Z,28.00
2022-10-02T22:42:03.098Z,23.65
2022-10-02T22:44:48.129Z,30.02
2022-10-02T22:47:52.093Z,19.13
2022-10-02T22:50:31.403Z,23.55
2022-10-02T22:53:15.376Z,26.05
2022-10-02T22:55:50.177Z,25.80
2022-10-02T22:58:50.565Z,25.73
2022-10-02T23:01:33.224Z,20.80
2022-10-02T23:04:16.811Z,20.80
2022-10-02T23:06:53.400Z,24.88
2022-10-02T23:09:30.673Z,21.38
2022-10-02T23:12:26.646Z,19.70
2022-10-02T23:15:28.116Z,24.95
2022-10-02T23:17:59.655Z,24.65
2022-10-02T23:20:40.733Z,27.15
2022-10-02T23:23:25.916Z,23.25
2022-10-02T23:26:06.592Z,25.80
2022-10-02T23:28:54.973Z,23.88
2022-10-02T23:31:32.087Z,23.20
2022-10-02T23:34:10.923Z,20.30
2022-10-02T23:36:50.079Z,28.02
2022-10-02T23:39:29.306Z,28.17
2022-10-02T23:41:59.252Z,20.10
2022-10-02T23:44:41.568Z,23.13
2022-10-02T23:47:35.257Z,23.45
2022-10-02T23:50:02.389Z,27.95
2022-10-02T23:53:08.433Z,24.60
2022-10-02T23:56:24.907Z,21.45
2022-10-02T23:59:00.239Z,27.52
